Linden Airport


Codes: KLDJ/
Name: Linden Airport
City: Linden
Country: United States
Elevation: 23 ft.
Wikipedia:

Photos at Linden Airport


   Photos courtesy of SpottingLog. You can add your own sightings and photos by signing up for a free trial today.



No photos found.

Weather at Linden Airport


Time (UTC)DescriptionTempratureWindCloud coverageVisibilityPressureHumidity
13-Jun-2024 03:00Clear Sky20°C4 mph, SW0%10000m1015hPa71%
13-Jun-2024 06:00Clear Sky19°C4 mph, SW10%10000m1015hPa72%
13-Jun-2024 09:00Clear Sky18°C4 mph, W0%10000m1016hPa74%
13-Jun-2024 12:00Few Clouds21°C7 mph, SW14%10000m1017hPa58%
13-Jun-2024 15:00Broken Clouds27°C7 mph, SW55%10000m1016hPa43%
13-Jun-2024 18:00Scattered Clouds30°C9 mph, SW41%10000m1014hPa35%
13-Jun-2024 21:00Clear Sky30°C9 mph, W4%10000m1013hPa34%
14-Jun-2024 00:00Scattered Clouds27°C11 mph, S29%10000m1014hPa52%
14-Jun-2024 03:00Scattered Clouds23°C11 mph, SW35%10000m1015hPa59%
14-Jun-2024 06:00Few Clouds21°C9 mph, SW18%10000m1014hPa61%
14-Jun-2024 09:00Light Rain19°C7 mph, SW4%10000m1014hPa81%
14-Jun-2024 12:00Light Rain21°C7 mph, SW27%10000m1014hPa76%
14-Jun-2024 15:00Clear Sky28°C9 mph, SW0%10000m1013hPa51%
14-Jun-2024 18:00Clear Sky31°C7 mph, SW1%10000m1010hPa38%
14-Jun-2024 21:00Broken Clouds31°C9 mph, W71%10000m1008hPa38%
15-Jun-2024 00:00Light Rain21°C13 mph, N79%10000m1010hPa93%
15-Jun-2024 03:00Light Rain20°C2 mph, NE81%8997m1012hPa93%
15-Jun-2024 06:00Light Rain19°C4 mph, NE91%10000m1012hPa93%
15-Jun-2024 09:00Light Rain18°C4 mph, N22%10000m1013hPa94%
15-Jun-2024 12:00Few Clouds19°C9 mph, N12%10000m1015hPa77%
15-Jun-2024 15:00Clear Sky24°C11 mph, N0%10000m1016hPa38%
15-Jun-2024 18:00Clear Sky26°C7 mph, N0%10000m1016hPa33%
15-Jun-2024 21:00Clear Sky28°C9 mph, N3%10000m1015hPa28%
16-Jun-2024 00:00Clear Sky24°C9 mph, N5%10000m1017hPa39%
16-Jun-2024 03:00Few Clouds21°C9 mph, N12%10000m1019hPa46%
16-Jun-2024 06:00Broken Clouds19°C7 mph, N56%10000m1020hPa48%
16-Jun-2024 09:00Overcast Clouds18°C9 mph, NE100%10000m1022hPa50%
16-Jun-2024 12:00Overcast Clouds19°C9 mph, NE100%10000m1023hPa41%
16-Jun-2024 15:00Overcast Clouds22°C7 mph, E100%10000m1024hPa35%
16-Jun-2024 18:00Broken Clouds24°C9 mph, SE77%10000m1022hPa45%
16-Jun-2024 21:00Broken Clouds23°C9 mph, SE76%10000m1021hPa56%
17-Jun-2024 00:00Broken Clouds21°C7 mph, SE71%10000m1022hPa62%
17-Jun-2024 03:00Overcast Clouds21°C4 mph, SE99%10000m1022hPa66%
17-Jun-2024 06:00Overcast Clouds20°C7 mph, SW100%10000m1021hPa64%
17-Jun-2024 09:00Broken Clouds20°C7 mph, S74%10000m1021hPa74%
17-Jun-2024 12:00Broken Clouds22°C9 mph, SW77%10000m1021hPa64%
17-Jun-2024 15:00Broken Clouds26°C11 mph, SW76%10000m1020hPa54%
17-Jun-2024 18:00Overcast Clouds28°C11 mph, SW88%10000m1019hPa49%
17-Jun-2024 21:00Overcast Clouds26°C4 mph, SW100%10000m1017hPa59%
18-Jun-2024 00:00Overcast Clouds25°C11 mph, S96%10000m1018hPa61%